Time;durP1;ratioP1;P1;durP2;ratioP2;P2;SDS_P1;SDS_P2;PMS_P1;PMS_P2;Temp;Humidity;BMP_temperature;BMP_pressure;BME280_temperature;BME280_humidity;BME280_pressure;Samples;Min_cycle;Max_cycle;Signal;HPM_P1;HPM_P2
2022/12/18 13:07:27;;;;;;;11.33;7.40;;;;;;;9.24;100.00;102580.66;2600777;54;20243;-64
2022/12/18 13:10:25;;;;;;;10.30;5.93;;;;;;;8.95;100.00;102578.75;2622292;39;20543;-65
2022/12/18 13:12:58;;;;;;;10.63;6.33;;;;;;;9.09;100.00;102583.63;2619264;47;20184;-66
2022/12/18 13:15:34;;;;;;;14.83;8.03;;;;;;;9.05;100.00;102587.19;2620473;39;20632;-65
2022/12/18 13:18:22;;;;;;;15.57;8.63;;;;;;;9.02;100.00;102579.50;2619430;54;20157;-69
2022/12/18 13:21:03;;;;;;;6.37;3.70;;;;;;;8.89;100.00;102566.81;2619260;39;20286;-64
2022/12/18 13:23:43;;;;;;;14.07;8.03;;;;;;;8.75;100.00;102597.34;2619164;54;20159;-64
2022/12/18 13:26:36;;;;;;;8.57;5.27;;;;;;;8.92;100.00;102605.56;2619629;54;20160;-65
2022/12/18 13:29:06;;;;;;;13.00;6.80;;;;;;;8.79;100.00;102604.16;2619170;54;20202;-65
2022/12/18 13:32:12;;;;;;;12.70;7.27;;;;;;;8.37;100.00;102574.03;2618978;54;20156;-64
2022/12/18 13:34:48;;;;;;;20.13;11.10;;;;;;;8.29;100.00;102601.78;2619484;47;20180;-64
2022/12/18 13:37:42;;;;;;;13.40;9.03;;;;;;;8.22;100.00;102606.22;2619076;46;20213;-64
2022/12/18 13:40:59;;;;;;;11.23;7.30;;;;;;;8.79;100.00;102619.66;2618658;47;20154;-66
2022/12/18 13:43:37;;;;;;;7.27;4.17;;;;;;;8.61;100.00;102645.97;2617227;54;20145;-65
2022/12/18 13:46:20;;;;;;;15.50;7.20;;;;;;;8.58;100.00;102642.59;2618756;47;20673;-64
2022/12/18 13:48:58;;;;;;;10.90;7.33;;;;;;;8.33;100.00;102635.31;2618735;47;20181;-64
2022/12/18 13:51:30;;;;;;;20.90;9.33;;;;;;;8.24;100.00;102624.25;2619382;47;20678;-64
2022/12/18 13:54:02;;;;;;;14.33;8.17;;;;;;;8.19;100.00;102657.97;2618999;54;20190;-64
2022/12/18 13:56:35;;;;;;;9.70;6.83;;;;;;;8.21;100.00;102666.56;2618753;54;20847;-64
2022/12/18 13:59:15;;;;;;;9.80;5.83;;;;;;;8.08;100.00;102674.56;2617142;54;20181;-64
2022/12/18 14:01:51;;;;;;;10.47;6.93;;;;;;;8.27;100.00;102673.31;2617162;47;20142;-65
2022/12/18 14:04:25;;;;;;;10.93;4.83;;;;;;;8.42;100.00;102663.56;2618159;46;20191;-64
2022/12/18 14:07:00;;;;;;;8.80;4.87;;;;;;;9.38;100.00;102645.94;2618834;39;20627;-64
2022/12/18 14:09:32;;;;;;;3.07;2.77;;;;;;;9.24;100.00;102668.72;2617448;54;20205;-64
2022/12/18 14:14:56;;;;;;;2.67;2.53;;;;;;;9.68;100.00;102671.09;2618632;54;20237;-64
2022/12/18 14:17:26;;;;;;;5.50;3.40;;;;;;;9.47;100.00;102671.63;2618787;54;20193;-65
2022/12/18 14:19:57;;;;;;;8.17;3.97;;;;;;;9.79;100.00;102679.47;2618769;54;20172;-65
2022/12/18 14:22:29;;;;;;;1.67;1.57;;;;;;;9.87;100.00;102682.72;2618738;54;20141;-64
2022/12/18 14:25:19;;;;;;;8.97;7.37;;;;;;;9.82;100.00;102694.97;2618029;54;20165;-66
2022/12/18 14:27:50;;;;;;;8.23;5.83;;;;;;;9.75;100.00;102684.75;2618476;54;20366;-65
2022/12/18 14:30:32;;;;;;;2.00;1.80;;;;;;;9.97;100.00;102680.75;2634750;36;105457;-65
2022/12/18 14:33:05;;;;;;;3.37;2.67;;;;;;;10.06;100.00;102695.22;2618501;54;20142;-65
2022/12/18 14:35:37;;;;;;;6.97;3.97;;;;;;;10.14;100.00;102696.72;2618904;54;20156;-66
2022/12/18 14:38:32;;;;;;;4.70;1.50;;;;;;;10.24;100.00;102698.19;2618250;54;20632;-64
2022/12/18 14:41:04;;;;;;;11.83;5.27;;;;;;;9.80;100.00;102696.72;2618358;54;20157;-65
2022/12/18 14:43:36;;;;;;;9.47;5.33;;;;;;;9.47;100.00;102702.72;2636618;36;20205;-64
2022/12/18 14:46:30;;;;;;;14.63;4.90;;;;;;;9.16;100.00;102706.91;2619088;54;20152;-64
2022/12/18 14:49:01;;;;;;;12.87;7.30;;;;;;;9.50;100.00;102702.66;2618831;54;20158;-65
2022/12/18 14:51:33;;;;;;;12.63;6.50;;;;;;;9.15;100.00;102702.59;2618904;39;20529;-64
2022/12/18 14:54:07;;;;;;;11.60;6.40;;;;;;;8.64;100.00;102710.56;2618201;54;20177;-65
2022/12/18 14:56:40;;;;;;;18.50;11.33;;;;;;;8.31;100.00;102713.78;2618598;54;20245;-65
2022/12/18 14:59:17;;;;;;;20.97;11.40;;;;;;;8.36;100.00;102717.16;2636280;36;20185;-64
2022/12/18 15:02:01;;;;;;;21.40;9.23;;;;;;;8.37;100.00;102713.69;2618714;54;20153;-64
2022/12/18 15:04:38;;;;;;;15.03;9.33;;;;;;;8.22;100.00;102701.88;2635847;36;20839;-66
2022/12/18 15:07:15;;;;;;;13.63;7.87;;;;;;;8.31;100.00;102709.47;2618185;54;20204;-65
2022/12/18 15:10:03;;;;;;;16.63;8.77;;;;;;;8.67;100.00;102707.06;2618291;54;20685;-65
2022/12/18 15:12:38;;;;;;;8.73;5.20;;;;;;;8.64;100.00;102712.31;2618422;39;20583;-64
2022/12/18 15:15:23;;;;;;;8.67;5.77;;;;;;;8.74;100.00;102719.88;2618216;54;20148;-64
2022/12/18 15:18:02;;;;;;;4.30;2.97;;;;;;;9.10;100.00;102718.25;2617171;54;20225;-66
2022/12/18 15:20:35;;;;;;;11.47;6.63;;;;;;;9.20;100.00;102714.56;2617635;54;20201;-65
2022/12/18 15:23:05;;;;;;;3.93;2.67;;;;;;;9.54;100.00;102719.84;2617553;54;20161;-65
2022/12/18 15:25:39;;;;;;;16.77;7.37;;;;;;;9.71;100.00;102724.59;2619697;39;20539;-65
2022/12/18 15:28:20;;;;;;;6.40;3.87;;;;;;;9.37;100.00;102737.50;2618567;54;20149;-65
2022/12/18 15:31:07;;;;;;;0.77;0.77;;;;;;;10.30;100.00;102738.72;2617599;54;20157;-66
2022/12/18 15:33:41;;;;;;;2.73;2.53;;;;;;;10.36;100.00;102735.94;2616737;54;20153;-66
2022/12/18 15:36:15;;;;;;;4.67;3.87;;;;;;;10.17;100.00;102716.56;2617323;51;20156;-66
2022/12/18 15:38:49;;;;;;;7.70;2.43;;;;;;;10.24;100.00;102757.03;2617537;54;20165;-64
2022/12/18 15:41:23;;;;;;;5.67;0.87;;;;;;;10.26;100.00;102769.09;2617749;47;20193;-65
2022/12/18 15:43:52;;;;;;;7.60;4.03;;;;;;;10.62;100.00;102762.06;2617485;39;21006;-65
2022/12/18 15:46:24;;;;;;;4.33;4.03;;;;;;;10.67;100.00;102762.78;2618177;54;20148;-65
2022/12/18 15:48:59;;;;;;;12.13;7.50;;;;;;;9.73;100.00;102778.13;2618929;54;20187;-65
2022/12/18 15:51:35;;;;;;;13.23;6.33;;;;;;;10.00;100.00;102781.81;2618271;54;20155;-65
2022/12/18 15:54:07;;;;;;;12.10;5.50;;;;;;;10.04;100.00;102783.44;2616908;39;20676;-65
2022/12/18 15:59:21;;;;;;;3.50;2.23;;;;;;;9.78;100.00;102791.84;2617832;39;20583;-64
2022/12/18 16:01:54;;;;;;;12.03;6.57;;;;;;;9.87;100.00;102786.44;2618049;54;20157;-66
2022/12/18 16:04:27;;;;;;;7.90;4.10;;;;;;;9.88;100.00;102782.94;2618270;54;20150;-65
2022/12/18 16:06:57;;;;;;;6.17;4.93;;;;;;;9.68;100.00;102767.00;2618002;54;20321;-64
2022/12/18 16:09:44;;;;;;;12.03;4.63;;;;;;;9.78;100.00;102796.19;2618417;54;20149;-64
2022/12/18 16:12:20;;;;;;;8.73;3.83;;;;;;;9.88;100.00;102800.25;2619279;54;20169;-65
2022/12/18 16:14:50;;;;;;;1.17;1.17;;;;;;;9.67;100.00;102814.53;2617947;54;20256;-65
2022/12/18 16:17:20;;;;;;;8.13;4.40;;;;;;;9.76;100.00;102811.75;2617367;54;20150;-65
2022/12/18 16:19:53;;;;;;;15.17;3.83;;;;;;;9.81;100.00;102820.28;2617833;54;20249;-66
2022/12/18 16:22:26;;;;;;;1.57;1.47;;;;;;;9.67;100.00;102827.50;2619304;54;20158;-64
2022/12/18 16:24:57;;;;;;;9.23;5.13;;;;;;;9.59;100.00;102821.66;2618916;54;20210;-64
2022/12/18 16:27:28;;;;;;;12.97;6.00;;;;;;;9.56;100.00;102816.53;2618628;54;20150;-66
2022/12/18 16:29:58;;;;;;;5.13;3.63;;;;;;;9.50;100.00;102821.00;2618794;54;20145;-65
2022/12/18 16:32:29;;;;;;;6.37;5.17;;;;;;;9.53;100.00;102816.59;2618800;54;20146;-65
2022/12/18 16:35:05;;;;;;;16.90;9.00;;;;;;;9.37;100.00;102810.91;2617252;54;20168;-65
2022/12/18 16:37:35;;;;;;;9.90;4.63;;;;;;;9.66;100.00;102814.59;2617029;47;20172;-64
2022/12/18 16:40:08;;;;;;;8.43;5.10;;;;;;;9.55;100.00;102825.19;2617453;54;20693;-65
2022/12/18 16:42:39;;;;;;;2.73;2.50;;;;;;;9.48;100.00;102830.53;2618554;54;20619;-65
2022/12/18 16:45:11;;;;;;;6.13;5.30;;;;;;;9.61;100.00;102838.03;2618436;54;20141;-65
2022/12/18 16:47:41;;;;;;;9.63;6.23;;;;;;;9.92;100.00;102835.59;2618732;54;20142;-65
2022/12/18 16:50:14;;;;;;;6.00;4.10;;;;;;;9.55;100.00;102845.91;2618988;54;20154;-64
2022/12/18 16:52:44;;;;;;;4.33;3.97;;;;;;;9.51;100.00;102849.47;2618939;54;20146;-65
2022/12/18 16:55:15;;;;;;;7.43;5.40;;;;;;;9.80;100.00;102847.09;2618290;54;20142;-64
2022/12/18 16:57:45;;;;;;;11.07;5.47;;;;;;;9.67;100.00;102840.47;2617905;54;20150;-64
2022/12/18 17:00:17;;;;;;;46.63;6.57;;;;;;;9.53;100.00;102837.34;2618142;54;20178;-63
2022/12/18 17:02:47;;;;;;;11.33;4.63;;;;;;;9.79;100.00;102829.81;2618739;54;20738;-64
2022/12/18 17:05:20;;;;;;;11.57;6.20;;;;;;;9.72;100.00;102842.97;2644585;36;115523;-64
2022/12/18 17:07:50;;;;;;;17.17;9.90;;;;;;;9.50;100.00;102841.75;2617632;54;20262;-65
2022/12/18 17:10:20;;;;;;;11.90;8.33;;;;;;;9.33;100.00;102847.28;2617861;54;20156;-64
2022/12/18 17:12:52;;;;;;;12.03;6.83;;;;;;;9.72;100.00;102851.59;2617717;54;20229;-65
2022/12/18 17:15:23;;;;;;;7.63;4.80;;;;;;;9.59;100.00;102852.75;2617594;54;20229;-64
2022/12/18 17:17:53;;;;;;;14.60;7.30;;;;;;;9.28;100.00;102856.84;2617181;54;20259;-64
2022/12/18 17:20:27;;;;;;;10.30;6.32;;;;;;;9.34;100.00;102856.75;2617402;54;20512;-64
2022/12/18 17:22:57;;;;;;;6.13;5.13;;;;;;;9.22;100.00;102851.81;2617459;54;20145;-63
2022/12/18 17:25:28;;;;;;;8.37;4.93;;;;;;;9.57;100.00;102856.25;2618197;54;20149;-64
2022/12/18 17:27:59;;;;;;;6.73;6.10;;;;;;;9.46;100.00;102847.88;2617854;54;20158;-64
2022/12/18 17:30:29;;;;;;;4.97;2.80;;;;;;;9.26;100.00;102854.31;2617386;54;20205;-64
2022/12/18 17:32:59;;;;;;;1.37;1.27;;;;;;;9.41;100.00;102847.97;2617800;54;20259;-65
2022/12/18 17:35:32;;;;;;;6.75;3.40;;;;;;;9.62;100.00;102854.44;2618198;54;20948;-63
2022/12/18 17:38:02;;;;;;;6.07;3.87;;;;;;;9.34;100.00;102848.97;2617637;39;20266;-64
2022/12/18 17:40:34;;;;;;;3.33;2.33;;;;;;;9.58;100.00;102861.44;2617891;54;20152;-65
2022/12/18 17:43:05;;;;;;;5.53;2.50;;;;;;;9.84;100.00;102864.28;2617915;54;20791;-65
2022/12/18 17:45:37;;;;;;;1.63;1.50;;;;;;;10.08;100.00;102867.22;2618078;54;20176;-64
2022/12/18 17:48:08;;;;;;;4.70;2.43;;;;;;;9.40;100.00;102873.03;2617080;54;20145;-64
2022/12/18 17:50:41;;;;;;;5.13;3.23;;;;;;;10.26;100.00;102885.84;2618179;54;20148;-65
2022/12/18 17:53:11;;;;;;;5.30;4.10;;;;;;;9.66;100.00;102895.81;2618098;54;20150;-64
2022/12/18 17:55:41;;;;;;;3.10;2.90;;;;;;;9.63;100.00;102898.44;2617858;54;20761;-66
2022/12/18 17:58:11;;;;;;;0.20;0.20;;;;;;;10.16;100.00;102899.03;2617440;47;20167;-65
2022/12/18 18:00:41;;;;;;;5.73;3.20;;;;;;;9.38;100.00;102905.03;2619195;54;20650;-68
2022/12/18 18:03:12;;;;;;;2.20;2.00;;;;;;;10.48;100.00;102903.47;2619334;54;20149;-72
2022/12/18 18:05:45;;;;;;;0.40;0.17;;;;;;;10.27;100.00;102902.25;2619153;47;20173;-66
2022/12/18 18:08:15;;;;;;;1.70;1.33;;;;;;;10.26;100.00;102904.00;2618846;54;20197;-65
2022/12/18 18:10:47;;;;;;;3.27;1.37;;;;;;;9.97;100.00;102897.72;2618701;47;20141;-64
2022/12/18 18:16:11;;;;;;;9.83;2.00;;;;;;;9.99;100.00;102911.53;2618242;54;20149;-66
2022/12/18 18:18:42;;;;;;;3.70;2.63;;;;;;;10.08;100.00;102911.31;2619126;39;20553;-65
2022/12/18 18:21:14;;;;;;;3.20;2.33;;;;;;;9.86;100.00;102916.97;2618868;39;20555;-65
2022/12/18 18:23:45;;;;;;;1.93;1.50;;;;;;;10.07;100.00;102910.44;2619050;54;20166;-64
2022/12/18 18:26:17;;;;;;;2.13;0.60;;;;;;;10.12;100.00;102926.75;2619004;54;20157;-64
2022/12/18 18:28:47;;;;;;;4.63;3.07;;;;;;;10.46;100.00;102918.25;2618527;54;20158;-66
2022/12/18 18:31:17;;;;;;;4.80;3.20;;;;;;;10.09;100.00;102941.53;2618964;39;20545;-66
2022/12/18 18:33:48;;;;;;;5.50;2.60;;;;;;;10.16;100.00;102932.75;2619575;47;20400;-64
2022/12/18 18:36:21;;;;;;;2.00;1.80;;;;;;;10.19;100.00;102930.13;2619453;47;20156;-66
2022/12/18 18:38:51;;;;;;;0.43;0.30;;;;;;;10.54;100.00;102935.34;2619501;54;20212;-66
2022/12/18 18:41:23;;;;;;;3.00;0.73;;;;;;;10.62;100.00;102936.00;2619241;54;20156;-65
2022/12/18 18:43:57;;;;;;;2.97;1.80;;;;;;;10.48;100.00;102927.69;2619693;39;20606;-66
2022/12/18 18:46:28;;;;;;;5.17;3.47;;;;;;;10.16;100.00;102938.81;2617618;54;20154;-65
2022/12/18 18:49:00;;;;;;;14.20;2.17;;;;;;;10.38;100.00;102949.56;2617038;54;20245;-64
2022/12/18 18:51:33;;;;;;;7.70;6.53;;;;;;;10.74;100.00;102948.69;2617298;54;20141;-66
2022/12/18 18:54:04;;;;;;;5.03;4.30;;;;;;;10.43;100.00;102952.88;2617772;54;20157;-65
2022/12/18 18:56:35;;;;;;;2.43;1.97;;;;;;;10.08;100.00;102955.41;2617792;54;20283;-65
2022/12/18 18:59:25;;;;;;;11.13;6.40;;;;;;;9.11;100.00;102967.69;2618183;54;20197;-66
2022/12/18 19:02:01;;;;;;;3.87;3.37;;;;;;;9.09;100.00;102965.16;2618453;54;20149;-65
2022/12/18 19:04:35;;;;;;;13.87;7.03;;;;;;;8.58;100.00;102972.06;2618059;47;20165;-66
2022/12/18 19:07:16;;;;;;;15.80;8.90;;;;;;;8.54;100.00;102979.88;2618160;54;20208;-64
2022/12/18 19:10:00;;;;;;;11.00;6.30;;;;;;;8.35;100.00;102987.03;2617041;54;20153;-65
2022/12/18 19:15:18;;;;;;;16.23;8.53;;;;;;;7.37;100.00;102989.09;2618198;54;20149;-65
2022/12/18 19:17:49;;;;;;;11.43;7.87;;;;;;;7.49;100.00;103000.16;2618286;54;20150;-64
2022/12/18 19:20:19;;;;;;;9.33;5.53;;;;;;;7.21;100.00;103000.44;2618141;54;20270;-64
2022/12/18 19:22:52;;;;;;;14.23;6.13;;;;;;;7.21;100.00;102996.13;2618159;54;20231;-65
2022/12/18 19:25:28;;;;;;;9.83;6.07;;;;;;;7.08;100.00;103002.25;2617902;54;20666;-65
2022/12/18 19:28:10;;;;;;;11.97;6.90;;;;;;;6.93;100.00;102995.50;2617989;54;20674;-65
2022/12/18 19:30:51;;;;;;;15.00;5.23;;;;;;;7.74;100.00;102997.28;2618420;47;20149;-66
2022/12/18 19:33:30;;;;;;;2.87;2.17;;;;;;;7.96;100.00;103002.19;2618240;54;20305;-66
2022/12/18 19:36:15;;;;;;;4.93;1.73;;;;;;;8.81;100.00;103008.78;2618203;54;20149;-64
2022/12/18 19:38:48;;;;;;;12.07;6.90;;;;;;;8.80;100.00;103007.06;2618277;39;20473;-66
2022/12/18 19:41:20;;;;;;;4.72;3.20;;;;;;;8.85;100.00;103015.63;2616921;54;20421;-67
2022/12/18 19:43:51;;;;;;;5.87;4.77;;;;;;;8.95;100.00;103002.53;2617538;47;20756;-64
2022/12/18 19:46:23;;;;;;;11.93;5.43;;;;;;;9.14;100.00;103011.69;2618534;47;20149;-66
2022/12/18 19:48:53;;;;;;;4.07;2.53;;;;;;;9.37;100.00;103018.19;2618684;54;20174;-66
2022/12/18 19:51:27;;;;;;;5.10;2.87;;;;;;;9.09;100.00;103010.91;2618855;54;20250;-65
2022/12/18 19:54:01;;;;;;;9.27;4.87;;;;;;;8.78;100.00;103020.91;2620147;54;20198;-64
2022/12/18 19:56:33;;;;;;;3.07;1.73;;;;;;;9.21;100.00;103021.06;2620013;39;20601;-66
2022/12/18 19:59:04;;;;;;;0.70;0.70;;;;;;;9.18;100.00;103023.72;2618999;54;20713;-65
2022/12/18 20:01:34;;;;;;;3.07;2.13;;;;;;;9.24;100.00;103031.38;2619006;46;20163;-65
2022/12/18 20:04:05;;;;;;;4.03;1.40;;;;;;;9.36;100.00;103036.31;2618475;54;20149;-64
2022/12/18 20:06:38;;;;;;;5.87;2.30;;;;;;;9.59;100.00;103044.53;2617792;54;20149;-64
2022/12/18 20:09:12;;;;;;;8.50;4.17;;;;;;;9.42;100.00;103028.47;2617802;39;20518;-66
2022/12/18 20:11:42;;;;;;;2.97;1.77;;;;;;;9.92;100.00;103035.25;2617743;54;20232;-65
2022/12/18 20:14:14;;;;;;;11.03;5.37;;;;;;;9.23;100.00;103035.69;2618421;39;20605;-66
2022/12/18 20:16:52;;;;;;;11.77;6.10;;;;;;;9.14;100.00;103045.38;2617827;47;20169;-65
2022/12/18 20:19:42;;;;;;;8.63;5.40;;;;;;;8.56;100.00;103041.06;2617217;54;20681;-64
2022/12/18 20:22:12;;;;;;;3.67;3.33;;;;;;;9.20;100.00;103040.94;2617982;47;20170;-65
2022/12/18 20:24:45;;;;;;;12.57;5.17;;;;;;;9.00;100.00;103047.31;2616948;54;20819;-65
2022/12/18 20:27:18;;;;;;;3.20;3.03;;;;;;;8.52;100.00;103052.34;2618684;54;20172;-64
2022/12/18 20:29:48;;;;;;;4.90;1.20;;;;;;;8.76;100.00;103053.72;2617916;54;20140;-64
2022/12/18 20:32:18;;;;;;;5.33;3.87;;;;;;;9.03;100.00;103060.22;2617854;54;20161;-66
2022/12/18 20:34:48;;;;;;;15.00;4.90;;;;;;;8.50;100.00;103054.09;2618375;39;20536;-65
2022/12/18 20:37:19;;;;;;;4.20;3.37;;;;;;;8.39;100.00;103045.59;2618279;54;20154;-65
2022/12/18 20:39:52;;;;;;;7.23;5.00;;;;;;;7.99;100.00;103056.44;2618243;54;20153;-64
2022/12/18 20:42:22;;;;;;;7.20;4.33;;;;;;;8.08;100.00;103041.69;2619089;54;20138;-66
2022/12/18 20:44:53;;;;;;;1.10;0.90;;;;;;;8.55;100.00;103038.50;2619117;54;20206;-65
2022/12/18 20:47:23;;;;;;;5.90;2.23;;;;;;;8.85;100.00;103049.28;2619135;54;20141;-64
2022/12/18 20:49:53;;;;;;;3.57;2.63;;;;;;;8.88;100.00;103044.03;2618718;39;20523;-68
2022/12/18 20:52:23;;;;;;;2.43;2.00;;;;;;;9.47;100.00;103043.94;2618924;54;20974;-67
2022/12/18 20:54:57;;;;;;;2.83;1.57;;;;;;;9.50;100.00;103046.47;2618955;47;20141;-66
2022/12/18 20:57:29;;;;;;;10.47;2.53;;;;;;;9.80;100.00;103046.72;2618628;54;20229;-66
2022/12/18 20:59:59;;;;;;;14.57;7.17;;;;;;;8.32;100.00;103051.75;2618334;54;20149;-64
2022/12/18 21:02:29;;;;;;;16.07;8.63;;;;;;;7.58;100.00;103065.50;2618890;54;20157;-66
2022/12/18 21:05:00;;;;;;;6.17;4.27;;;;;;;7.16;100.00;103058.97;2618339;54;20686;-65
2022/12/18 21:07:30;;;;;;;9.47;5.20;;;;;;;6.75;100.00;103057.56;2620575;39;20567;-65
2022/12/18 21:10:11;;;;;;;4.03;2.83;;;;;;;7.53;100.00;103061.25;2619371;54;20190;-64
2022/12/18 21:12:48;;;;;;;3.83;2.93;;;;;;;7.71;100.00;103062.78;2618737;54;20740;-65
2022/12/18 21:15:31;;;;;;;9.17;5.10;;;;;;;7.07;100.00;103078.84;2619243;47;20150;-63
2022/12/18 21:18:01;;;;;;;12.73;4.93;;;;;;;7.50;100.00;103074.16;2619134;39;20634;-65
2022/12/18 21:20:32;;;;;;;4.57;3.67;;;;;;;7.27;100.00;103088.16;2618493;54;20190;-63
2022/12/18 21:23:02;;;;;;;8.73;5.47;;;;;;;6.87;100.00;103092.75;2618662;54;20154;-64
2022/12/18 21:25:48;;;;;;;11.23;5.00;;;;;;;7.15;100.00;103088.25;2619731;39;21060;-64
2022/12/18 21:28:24;;;;;;;2.00;1.90;;;;;;;7.60;100.00;103074.94;2618801;47;20693;-64
2022/12/18 21:30:55;;;;;;;2.90;2.13;;;;;;;7.58;100.00;103081.88;2619204;54;20150;-66
2022/12/18 21:33:25;;;;;;;1.50;1.47;;;;;;;7.86;100.00;103067.78;2618984;54;20190;-65
2022/12/18 21:35:55;;;;;;;3.20;2.47;;;;;;;8.60;100.00;103071.19;2618908;54;20154;-64
2022/12/18 21:38:25;;;;;;;1.33;1.23;;;;;;;8.22;100.00;103068.25;2618938;54;20149;-64
2022/12/18 21:40:58;;;;;;;8.77;2.40;;;;;;;7.74;100.00;103061.91;2618741;54;20693;-65
2022/12/18 21:46:11;;;;;;;6.83;3.97;;;;;;;7.21;100.00;103070.13;2618268;54;20150;-64
2022/12/18 21:48:42;;;;;;;13.13;6.07;;;;;;;7.38;100.00;103068.28;2620411;39;20544;-64
2022/12/18 21:51:12;;;;;;;4.40;3.60;;;;;;;7.05;100.00;103069.41;2618172;47;20173;-64
2022/12/18 21:53:42;;;;;;;8.93;3.60;;;;;;;6.88;100.00;103068.66;2618768;54;20202;-63
2022/12/18 21:56:16;;;;;;;5.23;3.93;;;;;;;7.06;100.00;103073.72;2619556;54;20142;-64
2022/12/18 21:58:49;;;;;;;3.70;2.37;;;;;;;7.77;100.00;103067.03;2618911;54;20156;-63
2022/12/18 22:01:26;;;;;;;10.63;4.40;;;;;;;7.48;100.00;103064.72;2619100;54;20171;-63
2022/12/18 22:04:06;;;;;;;2.03;1.07;;;;;;;9.14;100.00;103046.22;2619486;54;20176;-63
2022/12/18 22:06:36;;;;;;;2.20;2.00;;;;;;;8.81;100.00;103041.56;2617432;54;20133;-64
2022/12/18 22:09:08;;;;;;;0.30;0.30;;;;;;;9.56;100.00;103051.53;2619320;54;20156;-64
2022/12/18 22:11:41;;;;;;;1.23;1.17;;;;;;;9.52;100.00;103053.31;2618665;54;20161;-65
2022/12/18 22:14:12;;;;;;;2.20;1.50;;;;;;;10.10;100.00;103053.06;2619416;54;20158;-64
2022/12/18 22:16:43;;;;;;;2.63;1.13;;;;;;;9.99;100.00;103060.19;2617821;47;20152;-64
2022/12/18 22:19:14;;;;;;;6.80;3.23;;;;;;;9.87;100.00;103061.28;2618581;39;20583;-65
2022/12/18 22:21:46;;;;;;;1.17;1.17;;;;;;;10.10;100.00;103054.81;2619432;39;20540;-66
2022/12/18 22:24:18;;;;;;;2.00;1.90;;;;;;;10.20;100.00;103043.38;2618570;54;20149;-65
2022/12/18 22:26:53;;;;;;;2.10;2.00;;;;;;;10.10;100.00;103045.28;2619030;54;20161;-65
2022/12/18 22:32:15;;;;;;;2.83;1.97;;;;;;;9.53;100.00;103039.47;2618035;54;20140;-64
2022/12/18 22:35:00;;;;;;;0.70;0.43;;;;;;;10.09;100.00;103040.13;2618500;54;20387;-65
2022/12/18 22:37:39;;;;;;;0.90;0.90;;;;;;;9.88;100.00;103051.78;2618016;54;20180;-63
2022/12/18 22:40:12;;;;;;;1.07;1.07;;;;;;;9.90;100.00;103054.34;2618767;54;20245;-64
2022/12/18 22:42:48;;;;;;;1.57;1.47;;;;;;;10.02;100.00;103052.38;2618722;54;20156;-65
2022/12/18 22:45:20;;;;;;;6.00;2.43;;;;;;;9.94;100.00;103050.81;2619325;54;20232;-65
2022/12/18 22:47:50;;;;;;;0.50;0.50;;;;;;;10.16;100.00;103059.88;2620462;54;20134;-65
2022/12/18 22:50:20;;;;;;;2.47;1.40;;;;;;;10.60;100.00;103052.00;2617991;54;20701;-64
2022/12/18 22:52:50;;;;;;;0.50;0.50;;;;;;;10.37;100.00;103049.06;2618244;54;20205;-65
2022/12/18 22:55:21;;;;;;;0.10;0.10;;;;;;;10.58;100.00;103051.19;2618966;54;20201;-64
2022/12/18 22:57:54;;;;;;;0.97;0.97;;;;;;;10.52;100.00;103053.91;2618257;54;20142;-64
2022/12/18 23:00:24;;;;;;;1.87;1.77;;;;;;;9.93;100.00;103059.47;2617811;54;20233;-64
2022/12/18 23:02:55;;;;;;;1.70;1.60;;;;;;;10.63;100.00;103049.31;2618878;54;20185;-65
2022/12/18 23:05:31;;;;;;;3.57;1.87;;;;;;;10.71;100.00;103050.00;2618289;54;20156;-65
2022/12/18 23:08:01;;;;;;;2.50;1.60;;;;;;;10.13;100.00;103050.41;2618708;54;20212;-65
2022/12/18 23:10:32;;;;;;;0.87;0.87;;;;;;;10.13;100.00;103050.41;2618568;54;20141;-66
2022/12/18 23:13:04;;;;;;;5.03;1.90;;;;;;;10.25;100.00;103051.91;2618555;54;20149;-64
2022/12/18 23:15:35;;;;;;;2.13;1.93;;;;;;;10.20;100.00;103058.94;2617634;54;20686;-65
2022/12/18 23:18:05;;;;;;;3.87;2.67;;;;;;;9.48;100.00;103066.34;2618195;54;20197;-66
2022/12/18 23:20:37;;;;;;;1.97;1.03;;;;;;;9.96;100.00;103067.19;2618393;54;20189;-64
2022/12/18 23:23:08;;;;;;;8.90;3.10;;;;;;;8.93;100.00;103078.50;2618625;54;20149;-64
2022/12/18 23:25:39;;;;;;;4.53;1.90;;;;;;;9.32;100.00;103081.31;2618847;31;20758;-64
2022/12/18 23:28:11;;;;;;;2.37;1.43;;;;;;;8.97;100.00;103075.84;2618743;54;20150;-63
2022/12/18 23:30:42;;;;;;;3.07;1.90;;;;;;;8.87;100.00;103075.13;2618514;54;20166;-63
2022/12/18 23:33:12;;;;;;;3.60;2.27;;;;;;;8.74;100.00;103078.78;2618222;54;20148;-65
2022/12/18 23:35:42;;;;;;;5.57;1.40;;;;;;;8.68;100.00;103089.22;2618233;54;20142;-64
2022/12/18 23:38:12;;;;;;;6.30;3.70;;;;;;;9.05;100.00;103095.56;2618601;54;20157;-64
2022/12/18 23:40:42;;;;;;;0.33;0.33;;;;;;;8.67;100.00;103095.25;2618364;54;20146;-64
2022/12/18 23:43:17;;;;;;;13.13;5.17;;;;;;;8.88;100.00;103092.38;2617734;54;20141;-63
2022/12/18 23:45:47;;;;;;;0.93;0.70;;;;;;;8.24;100.00;103088.03;2619027;54;20161;-65
2022/12/18 23:48:24;;;;;;;2.23;1.60;;;;;;;9.13;100.00;103100.63;2619268;54;20149;-65
2022/12/18 23:50:54;;;;;;;1.50;1.40;;;;;;;9.70;100.00;103097.06;2617751;54;20138;-65
2022/12/18 23:53:24;;;;;;;0.67;0.67;;;;;;;9.91;100.00;103100.16;2618495;54;20157;-64
2022/12/18 23:55:54;;;;;;;1.60;1.50;;;;;;;10.07;100.00;103096.38;2617346;54;20145;-65
2022/12/18 23:58:28;;;;;;;2.87;1.30;;;;;;;9.72;100.00;103086.66;2617492;54;20149;-64
